N3285G KAMA-KCLL
Flight info
| Callsign | N3285G |
|---|---|
| Flight time | 0h 56m |
| Altitude | 45000 |
| Route | ACT |
| Aircraft | C750/M-SBDE3FGHRWXY/S |
Departure
| Time | 2026-04-24 00:02 |
|---|---|
| Airport | Rick Husband Amarillo International Airport (KAMA) |
Arrival
| Time | 2026-04-24 00:59 |
|---|---|
| Airport | Easterwood Field (KCLL) |
| Time | Latitude | Longitude | Altitude | Speed | Heading |
|---|---|---|---|---|---|
| 2026-04-23 23:19 | 35.20968 | -101.71813 | 3616 ft | 0 kts | 137° |
| 2026-04-23 23:46 | 35.20968 | -101.71812 | 3616 ft | 0 kts | 137° |
| 2026-04-23 23:46 | 35.20967 | -101.71819 | 3616 ft | 1 kts | 303° |
| 2026-04-23 23:46 | 35.20970 | -101.71822 | 3616 ft | 0 kts | 309° |
| 2026-04-23 23:46 | 35.20970 | -101.71823 | 3616 ft | 2 kts | 309° |
| 2026-04-23 23:47 | 35.21017 | -101.71858 | 3614 ft | 9 kts | 343° |
| 2026-04-23 23:47 | 35.21090 | -101.71884 | 3614 ft | 12 kts | 344° |
| 2026-04-23 23:47 | 35.21162 | -101.71919 | 3612 ft | 11 kts | 5° |
| 2026-04-23 23:47 | 35.21222 | -101.71853 | 3613 ft | 13 kts | 46° |
| 2026-04-23 23:48 | 35.21266 | -101.71798 | 3614 ft | 14 kts | 46° |
| 2026-04-23 23:48 | 35.21341 | -101.71701 | 3614 ft | 17 kts | 45° |
| 2026-04-23 23:48 | 35.21426 | -101.71596 | 3616 ft | 17 kts | 45° |
| 2026-04-23 23:48 | 35.21514 | -101.71484 | 3616 ft | 20 kts | 46° |
| 2026-04-23 23:49 | 35.21725 | -101.71217 | 3613 ft | 25 kts | 46° |
| 2026-04-23 23:49 | 35.21844 | -101.71071 | 3613 ft | 23 kts | 45° |
| 2026-04-23 23:49 | 35.21956 | -101.70930 | 3611 ft | 23 kts | 47° |
| 2026-04-23 23:50 | 35.22058 | -101.70797 | 3614 ft | 20 kts | 46° |
| 2026-04-23 23:50 | 35.22153 | -101.70679 | 3614 ft | 19 kts | 45° |
| 2026-04-23 23:50 | 35.22236 | -101.70574 | 3617 ft | 16 kts | 45° |
| 2026-04-23 23:50 | 35.22311 | -101.70479 | 3615 ft | 16 kts | 46° |
| 2026-04-23 23:51 | 35.22385 | -101.70386 | 3614 ft | 15 kts | 46° |
| 2026-04-23 23:51 | 35.22454 | -101.70296 | 3614 ft | 14 kts | 47° |
| 2026-04-23 23:51 | 35.22527 | -101.70205 | 3611 ft | 15 kts | 46° |
| 2026-04-23 23:51 | 35.22600 | -101.70114 | 3611 ft | 14 kts | 45° |
| 2026-04-23 23:52 | 35.22665 | -101.70028 | 3612 ft | 14 kts | 48° |
| 2026-04-23 23:52 | 35.22730 | -101.69947 | 3611 ft | 13 kts | 44° |
| 2026-04-23 23:52 | 35.22790 | -101.69872 | 3612 ft | 11 kts | 41° |
| 2026-04-23 23:52 | 35.22835 | -101.69862 | 3613 ft | 4 kts | 25° |
| 2026-04-23 23:53 | 35.22903 | -101.69845 | 3614 ft | 12 kts | 341° |
| 2026-04-23 23:53 | 35.22961 | -101.69902 | 3615 ft | 9 kts | 315° |
| 2026-04-23 23:53 | 35.23007 | -101.69955 | 3616 ft | 2 kts | 316° |
| 2026-04-23 23:53 | 35.23007 | -101.69956 | 3616 ft | 0 kts | 316° |
| 2026-04-24 00:01 | 35.23020 | -101.69970 | 3616 ft | 6 kts | 316° |
| 2026-04-24 00:01 | 35.23052 | -101.70008 | 3616 ft | 7 kts | 316° |
| 2026-04-24 00:02 | 35.23061 | -101.70057 | 3616 ft | 8 kts | 228° |
| 2026-04-24 00:02 | 35.22872 | -101.70296 | 3613 ft | 88 kts | 226° |
| 2026-04-24 00:02 | 35.22308 | -101.70997 | 3799 ft | 129 kts | 227° |
| 2026-04-24 00:02 | 35.21618 | -101.71809 | 4302 ft | 147 kts | 227° |
| 2026-04-24 00:03 | 35.20849 | -101.72708 | 4874 ft | 157 kts | 230° |
| 2026-04-24 00:03 | 35.19973 | -101.73643 | 5268 ft | 181 kts | 225° |
| 2026-04-24 00:03 | 35.18661 | -101.74195 | 5595 ft | 230 kts | 187° |
| 2026-04-24 00:03 | 35.16971 | -101.73838 | 6034 ft | 260 kts | 174° |
| 2026-04-24 00:04 | 35.15263 | -101.72769 | 6461 ft | 295 kts | 144° |
| 2026-04-24 00:04 | 35.13829 | -101.70985 | 7428 ft | 294 kts | 139° |
| 2026-04-24 00:04 | 35.12468 | -101.69084 | 8509 ft | 301 kts | 136° |
| 2026-04-24 00:04 | 35.11084 | -101.67145 | 9383 ft | 304 kts | 137° |
| 2026-04-24 00:05 | 35.09648 | -101.65205 | 10129 ft | 314 kts | 138° |
| 2026-04-24 00:05 | 35.08113 | -101.63155 | 10388 ft | 341 kts | 137° |
| 2026-04-24 00:05 | 35.06463 | -101.60916 | 10489 ft | 369 kts | 136° |
| 2026-04-24 00:05 | 35.04729 | -101.58533 | 11033 ft | 377 kts | 136° |
| 2026-04-24 00:06 | 35.02979 | -101.56142 | 11834 ft | 379 kts | 136° |
| 2026-04-24 00:06 | 35.01198 | -101.53743 | 12503 ft | 384 kts | 136° |
| 2026-04-24 00:06 | 34.99397 | -101.51314 | 13199 ft | 388 kts | 136° |
| 2026-04-24 00:06 | 34.97577 | -101.48845 | 13813 ft | 393 kts | 136° |
| 2026-04-24 00:07 | 34.95741 | -101.46354 | 14396 ft | 398 kts | 137° |
| 2026-04-24 00:07 | 34.93880 | -101.43838 | 15001 ft | 401 kts | 137° |
| 2026-04-24 00:07 | 34.92027 | -101.41329 | 15543 ft | 407 kts | 137° |
| 2026-04-24 00:07 | 34.90138 | -101.38724 | 16104 ft | 411 kts | 137° |
| 2026-04-24 00:08 | 34.88189 | -101.36161 | 16757 ft | 414 kts | 139° |
| 2026-04-24 00:08 | 34.86209 | -101.33563 | 17344 ft | 421 kts | 137° |
| 2026-04-24 00:08 | 34.84248 | -101.30880 | 17966 ft | 427 kts | 137° |
| 2026-04-24 00:08 | 34.82265 | -101.28157 | 18523 ft | 431 kts | 137° |
| 2026-04-24 00:09 | 34.80243 | -101.25450 | 19176 ft | 434 kts | 138° |
| 2026-04-24 00:09 | 34.78191 | -101.22727 | 19793 ft | 438 kts | 138° |
| 2026-04-24 00:09 | 34.76140 | -101.19970 | 20445 ft | 442 kts | 138° |
| 2026-04-24 00:09 | 34.74072 | -101.17173 | 21075 ft | 446 kts | 138° |
| 2026-04-24 00:10 | 34.71978 | -101.14365 | 21673 ft | 450 kts | 138° |
| 2026-04-24 00:10 | 34.69855 | -101.11535 | 22283 ft | 455 kts | 138° |
| 2026-04-24 00:10 | 34.67718 | -101.08677 | 22927 ft | 459 kts | 137° |
| 2026-04-24 00:10 | 34.65566 | -101.05792 | 23474 ft | 463 kts | 138° |
| 2026-04-24 00:11 | 34.63388 | -101.02880 | 23958 ft | 468 kts | 138° |
| 2026-04-24 00:11 | 34.61184 | -100.99944 | 24433 ft | 473 kts | 138° |
| 2026-04-24 00:11 | 34.58961 | -100.96981 | 24917 ft | 478 kts | 138° |
| 2026-04-24 00:11 | 34.56713 | -100.93984 | 25398 ft | 482 kts | 138° |
| 2026-04-24 00:12 | 34.54439 | -100.90954 | 25867 ft | 487 kts | 138° |
| 2026-04-24 00:12 | 34.52143 | -100.87902 | 26337 ft | 492 kts | 139° |
| 2026-04-24 00:12 | 34.49828 | -100.84827 | 26818 ft | 495 kts | 138° |
| 2026-04-24 00:12 | 34.47502 | -100.81736 | 27385 ft | 498 kts | 138° |
| 2026-04-24 00:13 | 34.45150 | -100.78615 | 27842 ft | 503 kts | 138° |
| 2026-04-24 00:13 | 34.42778 | -100.75474 | 28320 ft | 508 kts | 139° |
| 2026-04-24 00:13 | 34.40383 | -100.72304 | 28794 ft | 512 kts | 139° |
| 2026-04-24 00:13 | 34.37968 | -100.69107 | 29247 ft | 517 kts | 139° |
| 2026-04-24 00:14 | 34.35530 | -100.65883 | 29685 ft | 521 kts | 139° |
| 2026-04-24 00:14 | 34.33099 | -100.62674 | 30077 ft | 525 kts | 139° |
| 2026-04-24 00:14 | 34.30624 | -100.59410 | 30474 ft | 529 kts | 139° |
| 2026-04-24 00:14 | 34.28136 | -100.56128 | 30993 ft | 529 kts | 139° |
| 2026-04-24 00:15 | 34.25658 | -100.52861 | 31596 ft | 526 kts | 139° |
| 2026-04-24 00:15 | 34.23181 | -100.49602 | 32182 ft | 526 kts | 139° |
| 2026-04-24 00:15 | 34.20705 | -100.46352 | 32742 ft | 526 kts | 139° |
| 2026-04-24 00:15 | 34.18229 | -100.43102 | 33317 ft | 526 kts | 139° |
| 2026-04-24 00:16 | 34.15753 | -100.39851 | 33853 ft | 525 kts | 139° |
| 2026-04-24 00:16 | 34.13278 | -100.36606 | 34308 ft | 527 kts | 140° |
| 2026-04-24 00:16 | 34.10790 | -100.33351 | 34765 ft | 528 kts | 140° |
| 2026-04-24 00:16 | 34.08297 | -100.30090 | 35237 ft | 529 kts | 140° |
| 2026-04-24 00:17 | 34.05796 | -100.26820 | 35693 ft | 530 kts | 140° |
| 2026-04-24 00:17 | 34.03293 | -100.23552 | 36115 ft | 531 kts | 140° |
| 2026-04-24 00:17 | 34.00861 | -100.20450 | 37768 ft | 485 kts | 144° |
| 2026-04-24 00:17 | 33.98543 | -100.17484 | 38222 ft | 492 kts | 141° |
| 2026-04-24 00:18 | 33.96220 | -100.14346 | 38149 ft | 509 kts | 140° |
| 2026-04-24 00:18 | 33.93811 | -100.11137 | 38122 ft | 522 kts | 141° |
| 2026-04-24 00:18 | 33.91291 | -100.07921 | 38129 ft | 533 kts | 142° |
| 2026-04-24 00:18 | 33.88736 | -100.04658 | 38473 ft | 537 kts | 141° |
| 2026-04-24 00:19 | 33.86219 | -100.01347 | 39021 ft | 535 kts | 140° |
| 2026-04-24 00:19 | 33.83719 | -99.98059 | 39559 ft | 531 kts | 140° |
| 2026-04-24 00:19 | 33.81198 | -99.94817 | 40039 ft | 528 kts | 140° |
| 2026-04-24 00:19 | 33.78685 | -99.91603 | 40439 ft | 529 kts | 140° |
| 2026-04-24 00:20 | 33.76181 | -99.88360 | 40885 ft | 528 kts | 139° |
| 2026-04-24 00:20 | 33.73692 | -99.85116 | 41382 ft | 526 kts | 139° |
| 2026-04-24 00:20 | 33.71206 | -99.81908 | 41876 ft | 523 kts | 139° |
| 2026-04-24 00:20 | 33.68727 | -99.78729 | 42385 ft | 520 kts | 139° |
| 2026-04-24 00:21 | 33.66262 | -99.75561 | 42850 ft | 519 kts | 139° |
| 2026-04-24 00:21 | 33.63808 | -99.72392 | 43304 ft | 517 kts | 138° |
| 2026-04-24 00:21 | 33.61395 | -99.69285 | 43752 ft | 515 kts | 138° |
| 2026-04-24 00:21 | 33.58948 | -99.66147 | 44193 ft | 513 kts | 138° |
| 2026-04-24 00:22 | 33.56508 | -99.63021 | 44487 ft | 513 kts | 138° |
| 2026-04-24 00:22 | 33.54063 | -99.59885 | 44668 ft | 515 kts | 138° |
| 2026-04-24 00:22 | 33.51621 | -99.56752 | 44857 ft | 516 kts | 138° |
| 2026-04-24 00:22 | 33.49147 | -99.53589 | 44847 ft | 523 kts | 138° |
| 2026-04-24 00:23 | 33.44113 | -99.47158 | 44868 ft | 535 kts | 138° |
| 2026-04-24 00:23 | 33.38963 | -99.40583 | 44871 ft | 547 kts | 138° |
| 2026-04-24 00:24 | 33.33696 | -99.33878 | 44880 ft | 558 kts | 137° |
| 2026-04-24 00:24 | 33.28336 | -99.27062 | 44880 ft | 565 kts | 137° |
| 2026-04-24 00:25 | 33.22941 | -99.20217 | 44892 ft | 565 kts | 137° |
| 2026-04-24 00:25 | 33.17538 | -99.13376 | 44893 ft | 566 kts | 137° |
| 2026-04-24 00:26 | 33.12140 | -99.06553 | 44887 ft | 564 kts | 137° |
| 2026-04-24 00:26 | 33.09453 | -99.03162 | 44763 ft | 563 kts | 137° |
| 2026-04-24 00:26 | 33.06762 | -98.99770 | 44662 ft | 562 kts | 137° |
| 2026-04-24 00:27 | 33.01430 | -98.93058 | 44696 ft | 561 kts | 137° |
| 2026-04-24 00:27 | 32.96062 | -98.86314 | 44713 ft | 562 kts | 137° |
| 2026-04-24 00:28 | 32.90671 | -98.79551 | 44724 ft | 562 kts | 137° |
| 2026-04-24 00:28 | 32.85285 | -98.72810 | 44709 ft | 562 kts | 137° |
| 2026-04-24 00:29 | 32.79889 | -98.66068 | 44724 ft | 562 kts | 137° |
| 2026-04-24 00:29 | 32.74478 | -98.59318 | 44724 ft | 563 kts | 137° |
| 2026-04-24 00:30 | 32.69073 | -98.52591 | 44713 ft | 563 kts | 137° |
| 2026-04-24 00:30 | 32.63678 | -98.45890 | 44721 ft | 564 kts | 137° |
| 2026-04-24 00:31 | 32.58242 | -98.39148 | 44718 ft | 568 kts | 138° |
| 2026-04-24 00:31 | 32.52770 | -98.32375 | 44744 ft | 569 kts | 137° |
| 2026-04-24 00:32 | 32.47295 | -98.25610 | 44734 ft | 568 kts | 137° |
| 2026-04-24 00:32 | 32.41820 | -98.18860 | 44749 ft | 568 kts | 137° |
| 2026-04-24 00:33 | 32.36395 | -98.12174 | 43965 ft | 558 kts | 138° |
| 2026-04-24 00:33 | 32.34618 | -98.09992 | 43526 ft | 551 kts | 138° |
| 2026-04-24 00:33 | 32.31984 | -98.06758 | 42874 ft | 541 kts | 139° |
| 2026-04-24 00:34 | 32.29391 | -98.03576 | 42168 ft | 533 kts | 139° |
| 2026-04-24 00:34 | 32.26826 | -98.00430 | 41470 ft | 530 kts | 139° |
| 2026-04-24 00:34 | 32.24269 | -97.97302 | 40777 ft | 531 kts | 139° |
| 2026-04-24 00:34 | 32.21692 | -97.94151 | 40077 ft | 535 kts | 139° |
| 2026-04-24 00:35 | 32.19088 | -97.90965 | 39363 ft | 540 kts | 139° |
| 2026-04-24 00:35 | 32.16465 | -97.87757 | 38647 ft | 544 kts | 139° |
| 2026-04-24 00:35 | 32.13827 | -97.84536 | 37868 ft | 546 kts | 139° |
| 2026-04-24 00:35 | 32.11195 | -97.81325 | 37148 ft | 543 kts | 139° |
| 2026-04-24 00:36 | 32.08574 | -97.78129 | 36421 ft | 541 kts | 139° |
| 2026-04-24 00:36 | 32.05960 | -97.74948 | 35711 ft | 540 kts | 139° |
| 2026-04-24 00:36 | 32.03347 | -97.71770 | 35013 ft | 538 kts | 138° |
| 2026-04-24 00:36 | 32.00779 | -97.68648 | 34312 ft | 536 kts | 138° |
| 2026-04-24 00:37 | 31.98184 | -97.65495 | 33576 ft | 534 kts | 138° |
| 2026-04-24 00:37 | 31.95605 | -97.62365 | 32859 ft | 532 kts | 138° |
| 2026-04-24 00:37 | 31.93015 | -97.59227 | 32166 ft | 534 kts | 138° |
| 2026-04-24 00:37 | 31.90423 | -97.56088 | 31456 ft | 534 kts | 137° |
| 2026-04-24 00:38 | 31.87831 | -97.52949 | 30752 ft | 534 kts | 137° |
| 2026-04-24 00:38 | 31.85235 | -97.49808 | 30034 ft | 533 kts | 138° |
| 2026-04-24 00:38 | 31.82697 | -97.46740 | 29318 ft | 526 kts | 137° |
| 2026-04-24 00:38 | 31.80166 | -97.43683 | 28626 ft | 518 kts | 137° |
| 2026-04-24 00:39 | 31.77671 | -97.40676 | 27947 ft | 510 kts | 137° |
| 2026-04-24 00:39 | 31.75207 | -97.37707 | 27280 ft | 503 kts | 137° |
| 2026-04-24 00:39 | 31.72782 | -97.34786 | 26626 ft | 496 kts | 137° |
| 2026-04-24 00:39 | 31.70384 | -97.31901 | 25975 ft | 489 kts | 137° |
| 2026-04-24 00:40 | 31.68025 | -97.29064 | 25340 ft | 482 kts | 137° |
| 2026-04-24 00:40 | 31.65590 | -97.26426 | 24660 ft | 471 kts | 147° |
| 2026-04-24 00:40 | 31.62874 | -97.24354 | 24110 ft | 463 kts | 151° |
| 2026-04-24 00:40 | 31.60172 | -97.22350 | 23495 ft | 457 kts | 151° |
| 2026-04-24 00:41 | 31.57513 | -97.20342 | 22843 ft | 452 kts | 150° |
| 2026-04-24 00:41 | 31.54887 | -97.18342 | 22247 ft | 447 kts | 150° |
| 2026-04-24 00:41 | 31.52286 | -97.16382 | 21659 ft | 442 kts | 151° |
| 2026-04-24 00:41 | 31.49712 | -97.14459 | 21079 ft | 437 kts | 151° |
| 2026-04-24 00:42 | 31.47166 | -97.12548 | 20499 ft | 432 kts | 151° |
| 2026-04-24 00:42 | 31.44647 | -97.10647 | 19941 ft | 427 kts | 151° |
| 2026-04-24 00:42 | 31.42195 | -97.08803 | 19391 ft | 422 kts | 151° |
| 2026-04-24 00:42 | 31.39737 | -97.06963 | 18834 ft | 417 kts | 151° |
| 2026-04-24 00:43 | 31.37301 | -97.05138 | 18304 ft | 412 kts | 151° |
| 2026-04-24 00:43 | 31.34904 | -97.03339 | 17739 ft | 408 kts | 151° |
| 2026-04-24 00:43 | 31.32515 | -97.01550 | 17202 ft | 406 kts | 151° |
| 2026-04-24 00:43 | 31.30148 | -96.99780 | 16693 ft | 404 kts | 151° |
| 2026-04-24 00:44 | 31.27783 | -96.98011 | 16166 ft | 401 kts | 151° |
| 2026-04-24 00:44 | 31.25435 | -96.96255 | 15644 ft | 399 kts | 150° |
| 2026-04-24 00:44 | 31.23099 | -96.94510 | 15134 ft | 397 kts | 150° |
| 2026-04-24 00:44 | 31.20779 | -96.92777 | 14621 ft | 395 kts | 150° |
| 2026-04-24 00:45 | 31.18464 | -96.91050 | 14111 ft | 392 kts | 150° |
| 2026-04-24 00:45 | 31.16173 | -96.89341 | 13602 ft | 390 kts | 150° |
| 2026-04-24 00:45 | 31.13901 | -96.87646 | 13072 ft | 384 kts | 150° |
| 2026-04-24 00:45 | 31.11662 | -96.85978 | 12583 ft | 380 kts | 150° |
| 2026-04-24 00:46 | 31.09471 | -96.84348 | 12103 ft | 375 kts | 150° |
| 2026-04-24 00:46 | 31.07279 | -96.82716 | 11616 ft | 371 kts | 150° |
| 2026-04-24 00:46 | 31.05128 | -96.81115 | 11149 ft | 358 kts | 150° |
| 2026-04-24 00:46 | 31.03099 | -96.79603 | 10746 ft | 334 kts | 150° |
| 2026-04-24 00:47 | 31.01195 | -96.78188 | 10363 ft | 315 kts | 150° |
| 2026-04-24 00:47 | 30.99393 | -96.76851 | 10002 ft | 299 kts | 150° |
| 2026-04-24 00:47 | 30.97678 | -96.75579 | 9639 ft | 286 kts | 151° |
| 2026-04-24 00:47 | 30.96035 | -96.74361 | 9277 ft | 274 kts | 150° |
| 2026-04-24 00:48 | 30.94445 | -96.73182 | 8943 ft | 268 kts | 150° |
| 2026-04-24 00:48 | 30.92879 | -96.72023 | 8606 ft | 265 kts | 151° |
| 2026-04-24 00:48 | 30.91338 | -96.70880 | 8259 ft | 260 kts | 151° |
| 2026-04-24 00:48 | 30.89821 | -96.69756 | 7925 ft | 258 kts | 151° |
| 2026-04-24 00:49 | 30.88309 | -96.68637 | 7585 ft | 255 kts | 151° |
| 2026-04-24 00:49 | 30.86824 | -96.67538 | 7250 ft | 251 kts | 151° |
| 2026-04-24 00:49 | 30.85358 | -96.66452 | 6925 ft | 248 kts | 150° |
| 2026-04-24 00:49 | 30.83901 | -96.65375 | 6603 ft | 247 kts | 150° |
| 2026-04-24 00:50 | 30.82621 | -96.64050 | 6181 ft | 252 kts | 128° |
| 2026-04-24 00:50 | 30.81963 | -96.62166 | 5760 ft | 255 kts | 104° |
| 2026-04-24 00:50 | 30.81773 | -96.60126 | 5433 ft | 252 kts | 99° |
| 2026-04-24 00:50 | 30.81614 | -96.58156 | 5118 ft | 244 kts | 101° |
| 2026-04-24 00:51 | 30.81434 | -96.56208 | 4675 ft | 242 kts | 101° |
| 2026-04-24 00:51 | 30.81252 | -96.54263 | 4181 ft | 240 kts | 101° |
| 2026-04-24 00:51 | 30.81083 | -96.52371 | 3890 ft | 230 kts | 101° |
| 2026-04-24 00:51 | 30.80920 | -96.50552 | 3607 ft | 220 kts | 102° |
| 2026-04-24 00:52 | 30.80766 | -96.48847 | 3313 ft | 205 kts | 102° |
| 2026-04-24 00:52 | 30.80621 | -96.47250 | 3058 ft | 192 kts | 103° |
| 2026-04-24 00:52 | 30.80482 | -96.45742 | 2824 ft | 184 kts | 103° |
| 2026-04-24 00:52 | 30.80344 | -96.44270 | 2592 ft | 184 kts | 103° |
| 2026-04-24 00:53 | 30.80194 | -96.42778 | 2343 ft | 182 kts | 107° |
| 2026-04-24 00:53 | 30.79678 | -96.41534 | 2093 ft | 165 kts | 135° |
| 2026-04-24 00:53 | 30.78816 | -96.40751 | 2108 ft | 160 kts | 156° |
| 2026-04-24 00:53 | 30.77727 | -96.40406 | 2120 ft | 163 kts | 169° |
| 2026-04-24 00:54 | 30.76628 | -96.40160 | 2123 ft | 161 kts | 168° |
| 2026-04-24 00:54 | 30.75501 | -96.39895 | 2122 ft | 164 kts | 168° |
| 2026-04-24 00:54 | 30.74396 | -96.39641 | 2123 ft | 161 kts | 169° |
| 2026-04-24 00:54 | 30.73294 | -96.39390 | 2126 ft | 159 kts | 169° |
| 2026-04-24 00:55 | 30.72195 | -96.39139 | 2123 ft | 169 kts | 169° |
| 2026-04-24 00:55 | 30.71070 | -96.38883 | 2124 ft | 165 kts | 168° |
| 2026-04-24 00:55 | 30.69941 | -96.38625 | 2125 ft | 165 kts | 168° |
| 2026-04-24 00:55 | 30.68839 | -96.38374 | 2101 ft | 159 kts | 169° |
| 2026-04-24 00:56 | 30.67735 | -96.38123 | 1900 ft | 160 kts | 169° |
| 2026-04-24 00:56 | 30.66712 | -96.37890 | 1700 ft | 142 kts | 169° |
| 2026-04-24 00:56 | 30.65789 | -96.37681 | 1499 ft | 127 kts | 168° |
| 2026-04-24 00:56 | 30.64993 | -96.37500 | 1314 ft | 112 kts | 169° |
| 2026-04-24 00:57 | 30.64218 | -96.37307 | 1163 ft | 113 kts | 169° |
| 2026-04-24 00:57 | 30.63481 | -96.37120 | 1032 ft | 105 kts | 169° |
| 2026-04-24 00:57 | 30.61957 | -96.36787 | 839 ft | 114 kts | 172° |
| 2026-04-24 00:58 | 30.61192 | -96.36632 | 739 ft | 110 kts | 168° |
| 2026-04-24 00:58 | 30.60456 | -96.36456 | 558 ft | 107 kts | 168° |
| 2026-04-24 00:58 | 30.59724 | -96.36300 | 377 ft | 107 kts | 168° |
| 2026-04-24 00:58 | 30.59068 | -96.36150 | 321 ft | 71 kts | 169° |
| 2026-04-24 00:59 | 30.58750 | -96.36076 | 319 ft | 37 kts | 169° |
| 2026-04-24 00:59 | 30.58507 | -96.36023 | 316 ft | 34 kts | 169° |
| 2026-04-24 00:59 | 30.58322 | -96.35981 | 317 ft | 13 kts | 169° |
| 2026-04-24 00:59 | 30.58274 | -96.36013 | 316 ft | 8 kts | 253° |
| 2026-04-24 01:00 | 30.58266 | -96.36079 | 317 ft | 8 kts | 281° |
| 2026-04-24 01:00 | 30.58296 | -96.36105 | 317 ft | 0 kts | 347° |
| 2026-04-24 01:00 | 30.58331 | -96.36114 | 317 ft | 12 kts | 349° |
| 2026-04-24 01:00 | 30.58426 | -96.36134 | 315 ft | 14 kts | 349° |
| 2026-04-24 01:01 | 30.58517 | -96.36154 | 317 ft | 13 kts | 349° |
| 2026-04-24 01:01 | 30.58604 | -96.36173 | 318 ft | 12 kts | 348° |
| 2026-04-24 01:01 | 30.58687 | -96.36192 | 318 ft | 12 kts | 349° |
| 2026-04-24 01:01 | 30.58764 | -96.36210 | 319 ft | 11 kts | 349° |
| 2026-04-24 01:02 | 30.58829 | -96.36225 | 320 ft | 9 kts | 349° |
| 2026-04-24 01:02 | 30.58913 | -96.36244 | 320 ft | 15 kts | 349° |
| 2026-04-24 01:02 | 30.59013 | -96.36272 | 320 ft | 14 kts | 336° |
| 2026-04-24 01:02 | 30.59095 | -96.36332 | 321 ft | 13 kts | 320° |
| 2026-04-24 01:03 | 30.59162 | -96.36398 | 322 ft | 12 kts | 319° |
| 2026-04-24 01:03 | 30.59222 | -96.36458 | 322 ft | 12 kts | 320° |
| 2026-04-24 01:03 | 30.59288 | -96.36521 | 321 ft | 12 kts | 320° |
| 2026-04-24 01:03 | 30.59349 | -96.36561 | 320 ft | 6 kts | 43° |
| 2026-04-24 01:04 | 30.59348 | -96.36557 | 320 ft | 0 kts | 104° |